Terminal Aerodrome Forecast
Issued by NWS Atlanta, GA

Home | Current Version | Previous Version | Text Only | Print | Product List | Glossary On
Versions: 1 2 3 4 5 6 7 8 9 10 11 12 13
000
FTUS42 KFFC 211728
TAFCSG
TAF
KCSG 211728Z 2118/2218 09004KT P6SM SCT040
     FM212000 08005KT P6SM VCSH BKN050
     FM220300 VRB03KT P6SM FEW150
     FM221600 10004KT P6SM FEW050=

USA.gov is the U.S. government's official web portal to all federal, state and local government web resources and services.